createdAt,value
2018-09-20T00:02:03.671Z,5.77
2018-09-20T00:04:31.909Z,6.03
2018-09-20T00:07:00.134Z,5.37
2018-09-20T00:09:28.350Z,6.10
2018-09-20T00:11:56.578Z,6.20
2018-09-20T00:14:24.813Z,6.10
2018-09-20T00:16:53.046Z,6.10
2018-09-20T00:19:21.279Z,6.47
2018-09-20T00:21:49.503Z,6.37
2018-09-20T00:24:17.697Z,6.50
2018-09-20T00:26:45.947Z,7.10
2018-09-20T00:29:14.142Z,6.47
2018-09-20T00:31:42.353Z,6.40
2018-09-20T00:34:10.574Z,6.53
2018-09-20T00:36:38.820Z,6.83
2018-09-20T00:39:09.848Z,6.70
2018-09-20T00:41:38.098Z,6.53
2018-09-20T00:44:07.146Z,6.70
2018-09-20T00:46:35.350Z,6.53
2018-09-20T00:49:03.617Z,6.73
2018-09-20T00:51:31.838Z,6.30
2018-09-20T00:54:00.053Z,6.73
2018-09-20T00:56:28.272Z,6.93
2018-09-20T00:58:56.581Z,6.67
2018-09-20T01:01:25.061Z,6.33
2018-09-20T01:03:53.426Z,6.60
2018-09-20T01:06:22.257Z,6.80
2018-09-20T01:08:50.526Z,6.77
2018-09-20T01:11:18.768Z,6.63
2018-09-20T01:13:47.055Z,6.80
2018-09-20T01:16:15.557Z,7.00
2018-09-20T01:18:43.798Z,6.70
2018-09-20T01:21:13.085Z,7.10
2018-09-20T01:23:41.301Z,7.40
2018-09-20T01:26:09.521Z,7.47
2018-09-20T01:28:37.734Z,7.60
2018-09-20T01:31:05.971Z,7.73
2018-09-20T01:33:34.207Z,7.97
2018-09-20T01:36:02.427Z,7.67
2018-09-20T01:38:30.657Z,7.63
2018-09-20T01:40:58.862Z,8.30
2018-09-20T01:43:27.087Z,8.10
2018-09-20T01:45:55.322Z,7.90
2018-09-20T01:48:23.538Z,6.80
2018-09-20T01:50:51.823Z,7.43
2018-09-20T01:53:20.053Z,6.77
2018-09-20T01:55:48.287Z,6.83
2018-09-20T01:58:16.509Z,6.73
2018-09-20T02:00:44.736Z,7.23
2018-09-20T02:03:12.970Z,7.07
2018-09-20T02:05:41.200Z,6.73
2018-09-20T02:08:09.406Z,6.80
2018-09-20T02:10:37.623Z,7.10
2018-09-20T02:13:05.870Z,6.30
2018-09-20T02:15:34.121Z,7.00
2018-09-20T02:18:02.391Z,6.77
2018-09-20T02:20:30.837Z,6.90
2018-09-20T02:22:59.085Z,6.93
2018-09-20T02:25:27.342Z,6.93
2018-09-20T02:27:55.645Z,6.70
2018-09-20T02:30:23.883Z,6.47
2018-09-20T02:32:52.092Z,7.33
2018-09-20T02:35:20.422Z,6.57
2018-09-20T02:37:48.638Z,6.97
2018-09-20T02:40:16.876Z,6.90
2018-09-20T02:42:45.098Z,7.30
2018-09-20T02:45:13.314Z,6.80
2018-09-20T02:47:41.530Z,7.23
2018-09-20T02:50:09.757Z,6.97
2018-09-20T02:52:37.976Z,7.00
2018-09-20T02:55:06.233Z,6.67
2018-09-20T02:57:34.429Z,6.97
2018-09-20T03:00:02.655Z,6.53
2018-09-20T03:02:30.874Z,6.17
2018-09-20T03:04:59.106Z,6.90
2018-09-20T03:07:27.315Z,7.20
2018-09-20T03:09:55.522Z,7.03
2018-09-20T03:12:23.742Z,7.57
2018-09-20T03:14:51.971Z,7.20
2018-09-20T03:17:20.181Z,8.07
2018-09-20T03:19:48.827Z,7.50
2018-09-20T03:22:17.041Z,7.80
2018-09-20T03:24:45.257Z,7.37
2018-09-20T03:27:13.482Z,7.60
2018-09-20T03:29:41.711Z,7.20
2018-09-20T03:32:09.927Z,7.07
2018-09-20T03:34:38.143Z,7.70
2018-09-20T03:37:06.407Z,8.13
2018-09-20T03:39:34.611Z,8.20
2018-09-20T03:42:02.847Z,8.10
2018-09-20T03:44:31.062Z,8.50
2018-09-20T03:46:59.298Z,8.67
2018-09-20T03:49:27.514Z,8.10
2018-09-20T03:51:55.719Z,9.17
2018-09-20T03:54:24.025Z,7.33
2018-09-20T03:56:52.453Z,7.67
2018-09-20T03:59:20.726Z,7.23
2018-09-20T04:01:48.926Z,7.10
2018-09-20T04:04:17.146Z,7.50
2018-09-20T04:06:45.361Z,7.80
2018-09-20T04:09:13.594Z,7.40
2018-09-20T04:11:41.858Z,7.70
2018-09-20T04:14:10.326Z,7.40
2018-09-20T04:16:38.569Z,7.67
2018-09-20T04:19:06.834Z,7.27
2018-09-20T04:21:35.969Z,6.77
2018-09-20T04:24:06.690Z,7.00
2018-09-20T04:26:34.930Z,6.80
2018-09-20T04:29:03.211Z,6.97
2018-09-20T04:31:31.877Z,7.10
2018-09-20T04:34:01.006Z,7.63
2018-09-20T04:36:29.701Z,7.60
2018-09-20T04:38:57.926Z,8.07
2018-09-20T04:41:27.278Z,7.23
2018-09-20T04:43:55.493Z,6.87
2018-09-20T04:46:23.714Z,7.67
2018-09-20T04:48:51.931Z,7.17
2018-09-20T04:51:20.689Z,7.27
2018-09-20T04:53:48.898Z,7.30
2018-09-20T04:56:17.106Z,7.60
2018-09-20T04:58:45.340Z,7.50
2018-09-20T05:01:13.546Z,7.73
2018-09-20T05:03:41.766Z,7.20
2018-09-20T05:06:09.984Z,7.30
2018-09-20T05:08:38.193Z,7.23
2018-09-20T05:11:06.410Z,8.23
2018-09-20T05:13:34.645Z,7.83
2018-09-20T05:16:02.882Z,7.77
2018-09-20T05:18:31.103Z,7.57
2018-09-20T05:20:59.313Z,7.30
2018-09-20T05:23:27.537Z,7.50
2018-09-20T05:25:55.829Z,7.93
2018-09-20T05:28:24.119Z,7.40
2018-09-20T05:30:52.335Z,7.67
2018-09-20T05:33:20.654Z,7.77
2018-09-20T05:35:48.828Z,8.20
2018-09-20T05:38:17.021Z,7.73
2018-09-20T05:40:45.314Z,7.27
2018-09-20T05:43:13.562Z,7.73
2018-09-20T05:45:41.790Z,8.50
2018-09-20T05:48:11.095Z,7.50
2018-09-20T05:50:39.369Z,7.87
2018-09-20T05:53:07.518Z,7.50
2018-09-20T05:55:35.887Z,7.80
2018-09-20T05:58:04.106Z,8.17
2018-09-20T06:00:32.363Z,7.40
2018-09-20T06:03:00.602Z,7.97
2018-09-20T06:05:29.968Z,7.90
2018-09-20T06:07:58.133Z,7.97
2018-09-20T06:10:26.345Z,7.60
2018-09-20T06:12:54.661Z,7.10
2018-09-20T06:15:22.883Z,7.47
2018-09-20T06:17:51.085Z,7.43
2018-09-20T06:20:19.730Z,8.17
2018-09-20T06:22:47.942Z,7.60
2018-09-20T06:25:16.175Z,8.00
2018-09-20T06:27:44.558Z,7.60
2018-09-20T06:30:12.720Z,7.70
2018-09-20T06:32:40.970Z,7.77
2018-09-20T06:35:09.183Z,7.73
2018-09-20T06:37:37.406Z,7.93
2018-09-20T06:40:05.856Z,8.23
2018-09-20T06:42:34.070Z,8.70
2018-09-20T06:45:02.293Z,8.80
2018-09-20T06:47:30.517Z,7.77
2018-09-20T06:49:58.730Z,7.73
2018-09-20T06:52:26.967Z,8.47
2018-09-20T06:54:55.169Z,7.97
2018-09-20T06:57:23.383Z,7.17
2018-09-20T06:59:51.593Z,7.93
2018-09-20T07:02:19.805Z,8.10
2018-09-20T07:04:48.012Z,6.90
2018-09-20T07:07:16.238Z,7.07
2018-09-20T07:09:44.450Z,7.00
2018-09-20T07:12:12.668Z,7.00
2018-09-20T07:14:40.869Z,7.03
2018-09-20T07:17:09.091Z,6.97
2018-09-20T07:19:37.329Z,6.80
2018-09-20T07:22:05.541Z,6.90
2018-09-20T07:24:33.782Z,7.17
2018-09-20T07:27:01.990Z,6.77
2018-09-20T07:29:30.224Z,6.40
2018-09-20T07:31:58.437Z,8.67
2018-09-20T07:34:26.649Z,8.10
2018-09-20T07:36:54.866Z,7.10
2018-09-20T07:39:23.082Z,7.10
2018-09-20T07:41:51.298Z,7.03
2018-09-20T07:44:19.514Z,6.53
2018-09-20T07:46:47.727Z,6.97
2018-09-20T07:49:15.981Z,6.53
2018-09-20T07:51:44.198Z,6.50
2018-09-20T07:54:12.418Z,5.67
2018-09-20T07:56:40.658Z,5.87
2018-09-20T07:59:08.851Z,6.30
2018-09-20T08:01:37.155Z,5.70
2018-09-20T08:04:05.305Z,5.80
2018-09-20T08:06:33.520Z,6.00
2018-09-20T08:09:01.766Z,5.87
2018-09-20T08:11:30.053Z,5.80
2018-09-20T08:13:58.281Z,5.90
2018-09-20T08:16:26.562Z,6.50
2018-09-20T08:18:54.773Z,5.83
2018-09-20T08:21:23.030Z,5.10
2018-09-20T08:23:51.209Z,5.73
2018-09-20T08:26:19.423Z,5.33
2018-09-20T08:28:47.627Z,5.57
2018-09-20T08:31:15.857Z,4.77
2018-09-20T08:33:44.072Z,4.60
2018-09-20T08:36:12.314Z,4.93
2018-09-20T08:38:40.530Z,4.63
2018-09-20T08:41:08.753Z,5.13
2018-09-20T08:43:36.947Z,4.20
2018-09-20T08:46:05.189Z,4.17
2018-09-20T08:48:33.423Z,4.73
2018-09-20T08:51:01.688Z,5.07
2018-09-20T08:53:29.890Z,4.97
2018-09-20T08:55:58.101Z,4.63
2018-09-20T08:58:26.350Z,4.87
2018-09-20T09:00:54.565Z,5.07
2018-09-20T09:03:22.785Z,4.50
2018-09-20T09:05:50.989Z,4.93
2018-09-20T09:08:19.226Z,4.43
2018-09-20T09:10:47.439Z,4.97
2018-09-20T09:13:15.658Z,5.10
2018-09-20T09:15:43.873Z,4.57
2018-09-20T09:18:12.090Z,5.00
2018-09-20T09:20:40.343Z,5.30
2018-09-20T09:23:08.567Z,5.00
2018-09-20T09:25:36.773Z,4.83
2018-09-20T09:28:05.425Z,5.00
2018-09-20T09:30:33.639Z,4.70
2018-09-20T09:33:01.863Z,5.03
2018-09-20T09:35:30.098Z,4.97
2018-09-20T09:37:58.343Z,4.90
2018-09-20T09:40:26.595Z,5.37
2018-09-20T09:42:54.803Z,5.13
2018-09-20T09:45:23.002Z,5.00
2018-09-20T09:47:51.213Z,5.00
2018-09-20T09:50:19.434Z,5.57
2018-09-20T09:52:47.754Z,5.03
2018-09-20T09:55:15.989Z,5.60
2018-09-20T09:57:47.498Z,4.50
2018-09-20T10:00:15.713Z,4.97
2018-09-20T10:02:43.921Z,4.97
2018-09-20T10:05:12.152Z,5.30
2018-09-20T10:07:40.382Z,5.13
2018-09-20T10:10:08.598Z,4.77
2018-09-20T10:12:36.841Z,4.93
2018-09-20T10:15:05.210Z,5.50
2018-09-20T10:17:33.441Z,4.93
2018-09-20T10:20:01.709Z,5.33
2018-09-20T10:22:30.205Z,6.00
2018-09-20T10:24:58.434Z,5.20
2018-09-20T10:27:26.682Z,4.80
2018-09-20T10:29:54.904Z,4.93
2018-09-20T10:32:23.146Z,5.07
2018-09-20T10:34:51.368Z,4.70
2018-09-20T10:37:19.590Z,5.20
2018-09-20T10:39:47.811Z,4.70
2018-09-20T10:42:16.055Z,4.60
2018-09-20T10:44:44.270Z,6.10
2018-09-20T10:47:12.631Z,4.87
2018-09-20T10:49:40.803Z,4.77
2018-09-20T10:52:09.073Z,5.00
2018-09-20T10:54:37.634Z,5.00
2018-09-20T10:57:05.806Z,5.43
2018-09-20T10:59:34.042Z,5.20
2018-09-20T11:02:02.267Z,5.23
2018-09-20T11:04:30.524Z,4.97
2018-09-20T11:06:58.761Z,5.50
2018-09-20T11:09:27.013Z,5.57
2018-09-20T11:11:55.234Z,5.13
2018-09-20T11:14:23.454Z,5.33
2018-09-20T11:16:51.704Z,4.57
2018-09-20T11:19:19.943Z,4.97
2018-09-20T11:21:48.196Z,4.63
2018-09-20T11:24:16.433Z,4.70
2018-09-20T11:26:44.668Z,4.63
2018-09-20T11:29:12.964Z,4.73
2018-09-20T11:31:41.189Z,5.10
2018-09-20T11:34:09.654Z,4.60
2018-09-20T11:36:37.893Z,4.73
2018-09-20T11:39:08.679Z,5.13
2018-09-20T11:41:37.163Z,4.93
2018-09-20T11:44:05.405Z,5.13
2018-09-20T11:46:33.715Z,5.00
2018-09-20T11:49:01.955Z,4.93
2018-09-20T11:51:30.258Z,5.57
2018-09-20T11:53:58.582Z,5.00
2018-09-20T11:56:26.807Z,4.23
2018-09-20T11:58:55.093Z,5.47
2018-09-20T12:01:23.339Z,4.40
2018-09-20T12:03:51.576Z,5.20
2018-09-20T12:06:19.822Z,4.40
2018-09-20T12:08:48.034Z,5.00
2018-09-20T12:11:16.581Z,4.93
2018-09-20T12:13:44.830Z,4.60
2018-09-20T12:16:13.079Z,4.60
2018-09-20T12:18:41.305Z,4.57
2018-09-20T12:21:09.539Z,4.50
2018-09-20T12:23:37.805Z,4.70
2018-09-20T12:26:06.158Z,4.43
2018-09-20T12:28:34.455Z,4.73
2018-09-20T12:31:02.720Z,4.40
2018-09-20T12:33:32.036Z,4.77
2018-09-20T12:36:01.432Z,4.23
2018-09-20T12:38:29.624Z,4.53
2018-09-20T12:40:57.894Z,4.57
2018-09-20T12:43:26.218Z,4.20
2018-09-20T12:45:56.535Z,4.50
2018-09-20T12:48:24.851Z,4.47
2018-09-20T12:50:53.024Z,4.03
2018-09-20T12:53:21.278Z,4.90
2018-09-20T12:55:49.534Z,4.83
2018-09-20T12:58:17.826Z,4.50
2018-09-20T13:00:46.225Z,4.50
2018-09-20T13:03:14.483Z,4.50
2018-09-20T13:05:42.755Z,4.80
2018-09-20T13:08:13.310Z,4.40
2018-09-20T13:10:41.606Z,4.83
2018-09-20T13:13:09.870Z,4.20
2018-09-20T13:15:38.086Z,4.80
2018-09-20T13:18:06.349Z,4.63
2018-09-20T13:20:34.596Z,4.70
2018-09-20T13:23:02.879Z,4.60
2018-09-20T13:25:31.137Z,4.70
2018-09-20T13:27:59.355Z,4.50
2018-09-20T13:30:27.625Z,4.50
2018-09-20T13:32:55.847Z,4.70
2018-09-20T13:35:24.115Z,4.13
2018-09-20T13:37:52.350Z,4.13
2018-09-20T13:40:20.646Z,4.80
2018-09-20T13:42:48.873Z,3.83
2018-09-20T13:45:17.143Z,4.10
2018-09-20T13:47:45.363Z,4.10
2018-09-20T13:50:13.654Z,3.90
2018-09-20T13:52:41.962Z,4.30
2018-09-20T13:55:10.201Z,3.97
2018-09-20T13:57:38.448Z,4.13
2018-09-20T14:00:07.392Z,4.57
2018-09-20T14:02:35.638Z,4.20
2018-09-20T14:05:03.934Z,3.87
2018-09-20T14:07:32.191Z,4.17
2018-09-20T14:10:00.452Z,3.77
2018-09-20T14:12:28.727Z,3.83
2018-09-20T14:14:56.966Z,4.00
2018-09-20T14:17:25.237Z,4.17
2018-09-20T14:19:55.528Z,3.90
2018-09-20T14:22:23.753Z,3.67
2018-09-20T14:24:52.020Z,4.10
2018-09-20T14:27:20.286Z,4.13
2018-09-20T14:29:48.518Z,4.20
2018-09-20T14:32:16.790Z,3.60
2018-09-20T14:34:45.085Z,3.23
2018-09-20T14:37:13.370Z,3.63
2018-09-20T14:39:41.574Z,3.90
2018-09-20T14:42:09.783Z,4.00
2018-09-20T14:44:38.014Z,4.07
2018-09-20T14:47:06.241Z,3.90
2018-09-20T14:49:34.489Z,4.10
2018-09-20T14:52:02.731Z,3.93
2018-09-20T14:54:30.962Z,3.83
2018-09-20T14:56:59.299Z,4.07
2018-09-20T14:59:27.526Z,4.03
2018-09-20T15:01:55.745Z,3.43
2018-09-20T15:04:23.969Z,3.90
2018-09-20T15:06:52.177Z,3.77
2018-09-20T15:09:20.403Z,3.70
2018-09-20T15:11:48.651Z,3.80
2018-09-20T15:14:16.893Z,3.47
2018-09-20T15:16:45.139Z,3.70
2018-09-20T15:19:13.366Z,3.40
2018-09-20T15:21:41.626Z,3.60
2018-09-20T15:24:09.842Z,4.17
2018-09-20T15:26:38.085Z,3.47
2018-09-20T15:29:06.353Z,3.50
2018-09-20T15:31:34.605Z,3.50
2018-09-20T15:34:02.868Z,4.27
2018-09-20T15:36:31.100Z,3.33
2018-09-20T15:38:59.323Z,3.43
2018-09-20T15:41:27.593Z,4.00
2018-09-20T15:43:55.838Z,3.80
2018-09-20T15:46:24.054Z,3.90
2018-09-20T15:48:52.288Z,3.30
2018-09-20T15:51:20.493Z,3.50
2018-09-20T15:53:48.717Z,3.50
2018-09-20T15:56:16.930Z,3.40
2018-09-20T15:58:45.166Z,3.53
2018-09-20T16:01:13.850Z,3.70
2018-09-20T16:03:43.342Z,3.50
2018-09-20T16:06:11.636Z,3.73
2018-09-20T16:08:40.679Z,3.77
2018-09-20T16:11:08.918Z,3.80
2018-09-20T16:13:37.208Z,3.70
2018-09-20T16:16:05.430Z,3.73
2018-09-20T16:18:33.734Z,3.60
2018-09-20T16:21:01.974Z,3.83
2018-09-20T16:23:30.341Z,3.83
2018-09-20T16:25:58.534Z,3.70
2018-09-20T16:29:05.373Z,3.83
2018-09-20T16:31:46.216Z,4.20
2018-09-20T16:34:26.404Z,3.90
2018-09-20T16:37:03.591Z,4.17
2018-09-20T16:39:35.915Z,4.27
2018-09-20T16:42:04.838Z,4.13
2018-09-20T16:44:33.086Z,3.90
2018-09-20T16:47:01.323Z,3.63
2018-09-20T16:49:29.554Z,4.07
2018-09-20T16:51:57.801Z,3.70
2018-09-20T16:54:26.028Z,3.93
2018-09-20T16:56:54.318Z,4.37
2018-09-20T16:59:22.544Z,3.87
2018-09-20T17:01:51.354Z,4.30
2018-09-20T17:04:19.586Z,4.53
2018-09-20T17:06:47.826Z,4.13
2018-09-20T17:09:16.090Z,4.43
2018-09-20T17:11:44.309Z,4.00
2018-09-20T17:14:12.538Z,4.20
2018-09-20T17:16:40.897Z,3.90
2018-09-20T17:19:09.159Z,4.10
2018-09-20T17:21:37.379Z,4.53
2018-09-20T17:24:05.641Z,4.30
2018-09-20T17:26:33.867Z,3.80
2018-09-20T17:29:02.116Z,3.87
2018-09-20T17:31:33.767Z,3.80
2018-09-20T17:34:02.294Z,4.17
2018-09-20T17:36:30.906Z,3.80
2018-09-20T17:39:00.118Z,3.87
2018-09-20T17:41:30.945Z,4.03
2018-09-20T17:44:03.154Z,4.00
2018-09-20T17:46:31.390Z,4.00
2018-09-20T17:48:59.625Z,4.43
2018-09-20T17:51:28.890Z,4.33
2018-09-20T17:53:58.940Z,4.33
2018-09-20T17:56:30.082Z,3.90
2018-09-20T17:58:59.848Z,4.63
2018-09-20T18:01:29.896Z,4.73
2018-09-20T18:04:00.826Z,3.90
2018-09-20T18:06:30.646Z,3.70
2018-09-20T18:09:00.502Z,4.20
2018-09-20T18:11:31.080Z,4.20
2018-09-20T18:13:59.323Z,4.37
2018-09-20T18:16:27.638Z,5.13
2018-09-20T18:18:55.975Z,4.97
2018-09-20T18:21:24.206Z,4.97
2018-09-20T18:23:52.461Z,5.00
2018-09-20T18:26:20.702Z,4.90
2018-09-20T18:28:48.906Z,4.10
2018-09-20T18:31:17.125Z,4.17
2018-09-20T18:33:45.350Z,4.33
2018-09-20T18:36:13.587Z,4.20
2018-09-20T18:38:41.867Z,4.47
2018-09-20T18:41:10.138Z,4.07
2018-09-20T18:43:38.367Z,4.30
2018-09-20T18:46:06.614Z,3.83
2018-09-20T18:48:34.872Z,4.10
2018-09-20T18:51:03.097Z,4.40
2018-09-20T18:53:31.331Z,4.43
2018-09-20T18:55:59.599Z,5.03
2018-09-20T18:58:27.825Z,4.77
2018-09-20T19:00:56.030Z,4.53
2018-09-20T19:03:24.586Z,5.10
2018-09-20T19:05:52.836Z,5.40
2018-09-20T19:08:21.326Z,4.53
2018-09-20T19:10:49.665Z,4.30
2018-09-20T19:13:17.882Z,4.13
2018-09-20T19:15:46.103Z,5.40
2018-09-20T19:18:14.430Z,5.27
2018-09-20T19:20:42.669Z,4.53
2018-09-20T19:23:10.910Z,4.00
2018-09-20T19:25:39.143Z,4.20
2018-09-20T19:28:07.354Z,4.10
2018-09-20T19:30:35.586Z,4.13
2018-09-20T19:33:03.812Z,3.87
2018-09-20T19:35:32.321Z,4.10
2018-09-20T19:38:00.571Z,3.50
2018-09-20T19:40:28.798Z,3.40
2018-09-20T19:42:57.017Z,4.00
2018-09-20T19:45:25.247Z,3.30
2018-09-20T19:47:53.473Z,4.40
2018-09-20T19:50:21.691Z,4.13
2018-09-20T19:52:49.912Z,4.60
2018-09-20T19:55:18.130Z,3.80
2018-09-20T19:57:46.624Z,3.87
2018-09-20T20:00:14.906Z,4.20
2018-09-20T20:02:43.109Z,3.77
2018-09-20T20:05:11.449Z,4.10
2018-09-20T20:07:39.761Z,4.43
2018-09-20T20:10:09.060Z,4.33
2018-09-20T20:12:41.665Z,4.13
2018-09-20T20:15:10.942Z,3.80
2018-09-20T20:17:39.228Z,4.13
2018-09-20T20:20:07.780Z,4.63
2018-09-20T20:22:36.486Z,4.23
2018-09-20T20:25:04.738Z,4.30
2018-09-20T20:28:05.912Z,4.37
2018-09-20T20:30:34.159Z,4.37
2018-09-20T20:33:02.729Z,4.50
2018-09-20T20:35:31.119Z,4.20
2018-09-20T20:37:59.354Z,4.03
2018-09-20T20:40:27.623Z,4.40
2018-09-20T20:42:55.845Z,4.03
2018-09-20T20:45:24.107Z,4.10
2018-09-20T20:47:52.337Z,4.57
2018-09-20T20:50:20.571Z,3.73
2018-09-20T20:52:48.854Z,4.00
2018-09-20T20:58:08.033Z,4.53
2018-09-20T21:00:36.249Z,4.93
2018-09-20T21:03:04.489Z,4.50
2018-09-20T21:05:32.718Z,4.80
2018-09-20T21:08:00.941Z,4.47
2018-09-20T21:10:29.229Z,4.13
2018-09-20T21:12:57.462Z,4.70
2018-09-20T21:15:25.700Z,4.33
2018-09-20T21:17:53.998Z,4.83
2018-09-20T21:20:22.233Z,4.33
2018-09-20T21:22:50.454Z,4.77
2018-09-20T21:25:18.699Z,4.63
2018-09-20T21:27:46.975Z,4.63
2018-09-20T21:30:15.171Z,4.70
2018-09-20T21:32:43.414Z,4.60
2018-09-20T21:35:11.647Z,5.13
2018-09-20T21:37:40.147Z,5.43
2018-09-20T21:40:08.415Z,5.27
2018-09-20T21:42:36.646Z,4.60
2018-09-20T21:45:04.949Z,4.40
2018-09-20T21:47:33.190Z,4.60
2018-09-20T21:50:01.404Z,4.80
2018-09-20T21:52:29.639Z,4.50
2018-09-20T21:54:57.857Z,4.50
2018-09-20T21:57:26.090Z,5.03
2018-09-20T21:59:54.326Z,4.53
2018-09-20T22:02:27.811Z,5.03
2018-09-20T22:04:56.033Z,4.90
2018-09-20T22:07:24.238Z,4.67
2018-09-20T22:09:52.495Z,4.93
2018-09-20T22:12:20.730Z,4.87
2018-09-20T22:14:48.950Z,4.63
2018-09-20T22:17:17.181Z,5.07
2018-09-20T22:19:45.462Z,4.40
2018-09-20T22:22:13.698Z,4.90
2018-09-20T22:24:41.943Z,4.60
2018-09-20T22:27:10.147Z,4.30
2018-09-20T22:29:38.358Z,4.53
2018-09-20T22:32:06.617Z,4.73
2018-09-20T22:34:34.838Z,4.80
2018-09-20T22:37:03.057Z,4.73
2018-09-20T22:39:31.317Z,5.13
2018-09-20T22:41:59.502Z,4.57
2018-09-20T22:44:27.765Z,4.90
2018-09-20T22:46:55.969Z,4.50
2018-09-20T22:49:24.226Z,4.70
2018-09-20T22:51:52.469Z,4.90
2018-09-20T22:54:20.685Z,4.90
2018-09-20T22:56:48.932Z,4.70
2018-09-20T22:59:17.181Z,4.87
2018-09-20T23:01:45.406Z,5.13
2018-09-20T23:04:15.461Z,5.17
2018-09-20T23:06:43.681Z,4.87
2018-09-20T23:09:12.099Z,4.40
2018-09-20T23:11:41.014Z,4.97
2018-09-20T23:14:10.911Z,4.60
2018-09-20T23:16:39.201Z,4.90
2018-09-20T23:19:07.554Z,5.17
2018-09-20T23:21:35.802Z,4.67
2018-09-20T23:24:04.034Z,5.10
2018-09-20T23:26:32.258Z,4.70
2018-09-20T23:29:00.518Z,5.10
2018-09-20T23:31:28.729Z,4.57
2018-09-20T23:33:56.964Z,5.10
2018-09-20T23:36:25.222Z,4.80
2018-09-20T23:38:53.461Z,4.90
2018-09-20T23:41:21.686Z,5.00
2018-09-20T23:43:49.923Z,5.13
2018-09-20T23:46:18.159Z,5.37
2018-09-20T23:48:46.442Z,4.93
2018-09-20T23:51:14.925Z,5.50
2018-09-20T23:53:43.191Z,5.27
2018-09-20T23:56:11.434Z,5.60
2018-09-20T23:58:39.724Z,5.37
